Time;durP1;ratioP1;P1;durP2;ratioP2;P2;SDS_P1;SDS_P2;PMS_P1;PMS_P2;Temp;Humidity;BMP_temperature;BMP_pressure;BME280_temperature;BME280_humidity;BME280_pressure;Samples;Min_cycle;Max_cycle;Signal;HPM_P1;HPM_P2
2022/03/05 00:01:05;;;;;;;33.17;21.47;;;;;;;6.10;62.24;99358.50;5030436;28;20670;-59
2022/03/05 00:03:34;;;;;;;29.00;21.27;;;;;;;6.03;63.10;99362.53;5030273;28;20598;-59
2022/03/05 00:06:01;;;;;;;30.13;22.00;;;;;;;5.98;62.79;99356.44;5030560;28;20599;-60
2022/03/05 00:08:28;;;;;;;28.53;21.63;;;;;;;5.98;63.27;99353.88;5030175;28;20201;-59
2022/03/05 00:10:55;;;;;;;30.37;21.10;;;;;;;5.89;62.87;99363.78;5041631;28;20196;-60
2022/03/05 00:13:22;;;;;;;25.60;20.03;;;;;;;5.77;63.22;99356.53;5050009;28;20197;-60
2022/03/05 00:15:49;;;;;;;28.50;21.90;;;;;;;5.91;63.75;99362.13;5044514;28;20608;-59
2022/03/05 00:18:16;;;;;;;26.13;19.87;;;;;;;5.98;62.83;99358.97;5030503;28;20210;-61
2022/03/05 00:20:45;;;;;;;29.57;19.77;;;;;;;6.06;62.44;99361.75;5030247;28;20191;-61
2022/03/05 00:23:12;;;;;;;28.00;20.10;;;;;;;6.07;62.27;99359.25;5029942;28;20198;-61
2022/03/05 00:25:39;;;;;;;27.77;19.83;;;;;;;6.10;61.91;99356.78;5029933;28;20670;-61
2022/03/05 00:28:06;;;;;;;27.47;19.60;;;;;;;6.05;61.76;99357.47;5029879;28;20203;-61
2022/03/05 00:30:33;;;;;;;22.40;18.50;;;;;;;5.96;61.98;99355.50;5029905;28;20238;-61
2022/03/05 00:33:00;;;;;;;26.53;19.97;;;;;;;5.95;62.70;99356.31;5030013;28;20247;-61
2022/03/05 00:35:27;;;;;;;26.03;19.87;;;;;;;6.01;62.53;99346.31;5029844;28;20229;-60
2022/03/05 00:37:55;;;;;;;24.07;20.60;;;;;;;6.09;62.99;99352.53;5030071;28;20220;-61
2022/03/05 00:40:23;;;;;;;23.30;18.93;;;;;;;6.12;62.99;99352.63;5029901;28;20202;-60
2022/03/05 00:42:49;;;;;;;28.60;20.37;;;;;;;6.11;62.95;99353.44;5030019;28;20610;-60
2022/03/05 00:45:16;;;;;;;27.40;20.83;;;;;;;6.17;62.96;99355.31;5030288;28;20226;-61
2022/03/05 00:47:43;;;;;;;25.93;19.93;;;;;;;6.15;63.34;99341.66;5029821;28;20658;-61
2022/03/05 00:50:11;;;;;;;26.73;19.93;;;;;;;6.12;63.08;99354.31;5030648;28;20196;-61
2022/03/05 00:52:38;;;;;;;29.37;21.50;;;;;;;6.14;63.76;99356.09;5033664;28;20282;-61
2022/03/05 00:55:08;;;;;;;30.20;21.33;;;;;;;6.07;63.44;99360.94;5045630;28;20217;-60
2022/03/05 00:57:35;;;;;;;28.63;20.80;;;;;;;6.03;64.00;99354.00;5053682;28;20241;-60
2022/03/05 01:00:04;;;;;;;28.50;21.67;;;;;;;5.99;64.41;99360.69;5040556;28;20285;-60
2022/03/05 01:02:32;;;;;;;30.03;21.63;;;;;;;6.10;63.51;99358.50;5033457;28;20195;-60
2022/03/05 01:04:59;;;;;;;26.93;21.60;;;;;;;6.03;64.22;99359.13;5033313;28;20186;-60
2022/03/05 01:07:25;;;;;;;29.33;21.07;;;;;;;5.97;64.88;99353.81;5033586;28;20297;-60
2022/03/05 01:09:52;;;;;;;39.77;21.13;;;;;;;5.90;65.31;99352.75;5033150;28;20226;-60
2022/03/05 01:12:22;;;;;;;36.45;24.33;;;;;;;5.75;66.33;99352.22;5033001;28;20441;-59
2022/03/05 01:14:49;;;;;;;37.10;23.57;;;;;;;5.53;66.80;99312.44;5032669;28;20230;-60
2022/03/05 01:17:16;;;;;;;33.07;23.07;;;;;;;5.70;65.76;99325.72;5033183;28;20194;-59
2022/03/05 01:19:43;;;;;;;31.83;23.50;;;;;;;5.78;66.53;99355.75;5033145;28;20196;-59
2022/03/05 01:22:10;;;;;;;33.57;25.00;;;;;;;5.68;67.81;99360.50;5033086;28;20205;-60
2022/03/05 01:24:37;;;;;;;37.20;24.83;;;;;;;5.68;67.34;99351.16;5033339;28;20206;-60
2022/03/05 01:27:04;;;;;;;33.43;25.33;;;;;;;5.60;68.13;99361.91;5032908;28;20237;-60
2022/03/05 01:29:32;;;;;;;35.30;26.13;;;;;;;5.60;68.59;99357.69;5032497;28;20314;-59
2022/03/05 01:31:59;;;;;;;43.10;29.93;;;;;;;5.71;68.90;99363.16;5032024;28;20449;-59
2022/03/05 01:34:26;;;;;;;36.10;26.60;;;;;;;5.86;67.67;99358.56;5032550;28;20287;-60
2022/03/05 01:36:53;;;;;;;34.50;25.60;;;;;;;5.93;67.58;99352.88;5032562;28;20200;-59
2022/03/05 01:39:20;;;;;;;32.33;24.10;;;;;;;5.95;67.07;99363.97;5032727;28;20204;-59
2022/03/05 01:41:48;;;;;;;30.40;22.90;;;;;;;6.01;66.49;99361.63;5032831;28;20668;-59
2022/03/05 01:44:15;;;;;;;30.70;23.07;;;;;;;6.02;65.84;99362.47;5033000;28;20282;-59
2022/03/05 01:46:44;;;;;;;29.30;22.40;;;;;;;6.01;66.15;99361.63;5032750;28;20197;-59
2022/03/05 01:49:12;;;;;;;36.90;22.53;;;;;;;6.06;65.92;99362.63;5032918;28;20224;-60
2022/03/05 01:51:40;;;;;;;32.43;24.53;;;;;;;6.09;65.71;99367.84;5046612;28;20200;-60
2022/03/05 01:54:08;;;;;;;31.47;24.77;;;;;;;6.12;66.04;99365.38;5052421;28;20756;-59
2022/03/05 01:56:36;;;;;;;34.72;26.65;;;;;;;6.09;66.30;99360.19;5051170;28;20459;-60
2022/03/05 01:59:04;;;;;;;31.07;23.30;;;;;;;5.97;66.94;99362.31;5052299;28;20183;-59
2022/03/05 02:01:31;;;;;;;30.27;24.03;;;;;;;6.02;65.96;99362.47;5052118;28;20272;-59
2022/03/05 02:04:00;;;;;;;32.20;23.27;;;;;;;5.99;66.00;99363.22;5052273;28;20190;-60
2022/03/05 02:06:27;;;;;;;27.87;22.70;;;;;;;6.04;66.93;99361.72;5052335;28;20237;-60
2022/03/05 02:08:57;;;;;;;30.37;23.00;;;;;;;6.10;66.18;99351.69;5052230;28;20194;-60
2022/03/05 02:11:24;;;;;;;29.87;22.73;;;;;;;6.16;65.32;99363.78;5051883;28;20197;-60
2022/03/05 02:13:51;;;;;;;29.63;23.07;;;;;;;6.16;65.31;99367.19;5051997;28;20195;-60
2022/03/05 02:16:19;;;;;;;34.13;25.30;;;;;;;6.16;65.29;99363.78;5051947;28;20243;-60
2022/03/05 02:18:46;;;;;;;35.33;24.37;;;;;;;6.24;65.85;99362.31;5052302;28;20199;-59
2022/03/05 02:21:15;;;;;;;33.53;24.83;;;;;;;6.22;65.83;99362.28;5051827;28;20197;-60
2022/03/05 02:23:42;;;;;;;35.07;23.63;;;;;;;6.31;65.25;99357.47;5051654;28;20202;-60
2022/03/05 02:26:10;;;;;;;37.03;25.20;;;;;;;6.28;65.03;99361.63;5051617;28;20288;-60
2022/03/05 02:28:37;;;;;;;36.87;25.07;;;;;;;6.20;66.06;99355.41;5051425;28;20578;-59
2022/03/05 02:31:05;;;;;;;34.07;25.33;;;;;;;6.20;66.37;99368.16;5051775;28;20614;-60
2022/03/05 02:33:32;;;;;;;37.40;26.00;;;;;;;6.18;66.34;99365.56;5051806;28;20660;-60
2022/03/05 02:36:00;;;;;;;35.97;24.23;;;;;;;6.17;65.85;99368.94;5051321;28;20214;-59
2022/03/05 02:38:28;;;;;;;37.57;25.83;;;;;;;6.19;67.00;99371.53;5051647;28;20207;-60
2022/03/05 02:40:55;;;;;;;32.00;23.90;;;;;;;6.18;66.62;99363.00;5051497;28;20195;-60
2022/03/05 02:43:23;;;;;;;41.10;26.03;;;;;;;6.18;66.61;99364.72;5051195;28;20711;-59
2022/03/05 02:45:50;;;;;;;40.23;27.63;;;;;;;6.16;66.66;99371.44;5051560;28;20278;-59
2022/03/05 02:48:19;;;;;;;37.93;27.37;;;;;;;6.17;66.15;99368.94;5051141;28;20195;-59
2022/03/05 02:50:47;;;;;;;34.40;26.50;;;;;;;6.22;65.54;99371.63;5051440;28;20310;-61
2022/03/05 02:53:13;;;;;;;37.40;24.93;;;;;;;6.16;65.84;99372.28;5051325;28;20210;-60
2022/03/05 02:55:42;;;;;;;42.28;30.67;;;;;;;6.23;65.87;99366.59;5050340;28;21174;-59
2022/03/05 02:58:09;;;;;;;38.67;28.00;;;;;;;6.29;65.22;99371.00;5051221;28;20194;-59
2022/03/05 03:00:37;;;;;;;39.70;27.47;;;;;;;6.26;65.84;99371.75;5051087;28;20201;-60
2022/03/05 03:03:04;;;;;;;35.83;28.73;;;;;;;6.22;65.69;99364.84;5050831;28;20283;-59
2022/03/05 03:05:31;;;;;;;43.63;29.37;;;;;;;6.18;66.06;99365.56;5050955;28;20290;-60
2022/03/05 03:07:57;;;;;;;40.27;29.50;;;;;;;6.16;66.76;99361.22;5050865;28;20189;-60
2022/03/05 03:10:24;;;;;;;39.53;28.67;;;;;;;6.13;66.54;99367.09;5050964;28;20691;-60
2022/03/05 03:12:53;;;;;;;41.03;29.53;;;;;;;6.18;66.33;99357.91;5050450;28;20555;-60
2022/03/05 03:15:19;;;;;;;40.20;28.57;;;;;;;6.13;66.60;99364.53;5050963;28;20219;-60
2022/03/05 03:17:48;;;;;;;42.87;29.87;;;;;;;6.19;67.06;99362.19;5050971;28;20195;-60
2022/03/05 03:20:19;;;;;;;42.80;30.73;;;;;;;6.22;66.87;99371.63;5050766;28;20825;-60
2022/03/05 03:22:46;;;;;;;42.50;29.87;;;;;;;6.21;66.57;99374.97;5050478;28;20195;-61
2022/03/05 03:25:13;;;;;;;43.97;28.50;;;;;;;6.19;67.33;99372.41;5050513;28;20202;-61
2022/03/05 03:27:41;;;;;;;47.63;32.60;;;;;;;6.17;67.17;99383.38;5050661;28;20188;-60
2022/03/05 03:30:12;;;;;;;48.20;32.83;;;;;;;6.15;68.20;99379.91;5050562;28;20234;-61
2022/03/05 03:32:40;;;;;;;49.63;33.73;;;;;;;6.17;67.58;99378.28;5050489;28;20277;-59
2022/03/05 03:35:08;;;;;;;41.53;30.97;;;;;;;6.20;68.11;99391.13;5050308;28;20197;-59
2022/03/05 03:37:36;;;;;;;48.70;33.40;;;;;;;6.24;68.15;99388.72;5050417;28;20200;-58
2022/03/05 03:40:06;;;;;;;43.73;32.07;;;;;;;6.26;68.39;99392.16;5050348;28;20281;-58
2022/03/05 03:42:34;;;;;;;44.83;31.50;;;;;;;6.28;68.14;99398.19;5050543;28;20217;-58
2022/03/05 03:45:01;;;;;;;46.87;31.30;;;;;;;6.32;67.51;99397.47;5050529;28;20199;-58
2022/03/05 03:47:29;;;;;;;45.58;35.95;;;;;;;6.37;67.71;99398.47;5049674;28;20439;-58
2022/03/05 03:49:56;;;;;;;44.83;32.73;;;;;;;6.49;66.86;99393.75;5050559;28;20196;-58
2022/03/05 03:52:23;;;;;;;43.47;31.60;;;;;;;6.54;67.21;99392.19;5050926;28;20284;-59
2022/03/05 03:54:50;;;;;;;42.10;31.17;;;;;;;6.16;67.55;99340.81;5050784;28;20586;-59
2022/03/05 03:57:18;;;;;;;46.27;32.17;;;;;;;6.45;67.83;99397.03;5050383;28;20225;-59
2022/03/05 03:59:47;;;;;;;42.13;31.57;;;;;;;6.49;67.73;99398.00;5050493;28;20559;-59
2022/03/05 04:02:14;;;;;;;42.53;30.57;;;;;;;6.51;67.50;99391.22;5050352;28;20197;-59
2022/03/05 04:04:42;;;;;;;46.70;32.07;;;;;;;6.42;67.26;99402.06;5050373;28;20209;-58
2022/03/05 04:09:54;;;;;;;44.30;31.70;;;;;;;6.45;67.73;99401.28;5050256;28;20324;-58
2022/03/05 04:12:21;;;;;;;46.20;31.03;;;;;;;6.47;67.29;99408.16;5050198;28;20703;-58
2022/03/05 04:14:48;;;;;;;50.60;33.13;;;;;;;6.50;67.57;99404.84;5049932;28;20193;-58
2022/03/05 04:17:15;;;;;;;46.10;32.47;;;;;;;6.54;67.91;99404.97;5049881;28;20226;-58
2022/03/05 04:19:43;;;;;;;48.63;35.13;;;;;;;6.55;67.42;99416.03;5050215;28;20195;-58
2022/03/05 04:22:10;;;;;;;56.93;35.40;;;;;;;6.52;67.36;99416.81;5050162;28;20189;-58
2022/03/05 04:24:37;;;;;;;45.30;34.43;;;;;;;6.52;67.97;99418.50;5050011;28;20281;-58
2022/03/05 04:27:05;;;;;;;49.90;34.87;;;;;;;6.52;67.66;99413.41;5053826;28;20190;-58
2022/03/05 04:29:31;;;;;;;48.20;33.57;;;;;;;6.32;68.45;99412.78;5053992;28;20242;-58
2022/03/05 04:31:58;;;;;;;43.70;34.33;;;;;;;6.22;69.40;99422.63;5053760;28;20272;-58
2022/03/05 04:34:25;;;;;;;47.53;34.73;;;;;;;6.11;69.65;99412.09;5053761;28;20196;-58
2022/03/05 04:36:53;;;;;;;49.97;34.80;;;;;;;5.99;70.67;99415.94;5053815;28;20244;-58
2022/03/05 04:39:20;;;;;;;54.20;40.58;;;;;;;5.85;71.51;99413.78;5053218;28;20561;-58
2022/03/05 04:41:47;;;;;;;49.27;35.73;;;;;;;5.63;71.12;99354.38;5053700;28;20196;-58
2022/03/05 04:44:14;;;;;;;51.27;34.23;;;;;;;5.97;70.95;99420.97;5053109;28;20566;-58
2022/03/05 04:46:41;;;;;;;42.53;31.23;;;;;;;5.95;71.54;99412.41;5053786;28;20202;-57
2022/03/05 04:49:08;;;;;;;43.03;32.20;;;;;;;5.93;71.39;99419.16;5053686;28;20234;-58
2022/03/05 04:51:36;;;;;;;42.03;30.07;;;;;;;5.96;71.94;99416.69;5053165;28;20198;-58
2022/03/05 04:54:04;;;;;;;46.40;30.47;;;;;;;5.76;71.55;99390.53;5053402;28;20210;-58
2022/03/05 04:56:31;;;;;;;43.57;30.43;;;;;;;5.83;71.37;99417.06;5053256;28;20220;-58
2022/03/05 04:58:58;;;;;;;43.72;35.38;;;;;;;5.82;71.46;99411.09;5052542;28;20432;-58
2022/03/05 05:01:25;;;;;;;41.50;30.93;;;;;;;5.85;72.19;99412.94;5053027;28;20199;-58
2022/03/05 05:03:52;;;;;;;41.90;31.33;;;;;;;5.87;71.92;99422.38;5053378;28;20195;-58
2022/03/05 05:06:19;;;;;;;42.27;28.33;;;;;;;5.84;71.55;99418.81;5053181;28;20186;-58
2022/03/05 05:08:46;;;;;;;39.63;29.33;;;;;;;5.83;72.65;99411.97;5053249;28;20282;-58
2022/03/05 05:11:15;;;;;;;42.00;29.23;;;;;;;5.91;73.20;99425.88;5053168;28;20192;-58
2022/03/05 05:13:42;;;;;;;41.03;29.60;;;;;;;5.81;73.29;99428.91;5051484;28;20672;-58
2022/03/05 05:16:09;;;;;;;39.93;29.23;;;;;;;5.58;73.71;99440.84;5052022;28;20206;-58
2022/03/05 05:18:36;;;;;;;38.20;28.83;;;;;;;5.59;75.37;99441.72;5052631;28;20188;-58
2022/03/05 05:21:03;;;;;;;46.50;30.70;;;;;;;5.74;74.33;99444.81;5050918;28;20278;-58
2022/03/05 05:23:30;;;;;;;41.83;30.43;;;;;;;5.83;73.89;99452.75;5051565;28;20189;-58
2022/03/05 05:25:57;;;;;;;40.60;29.80;;;;;;;5.92;73.24;99445.47;5052438;28;20202;-58
2022/03/05 05:28:25;;;;;;;45.30;31.47;;;;;;;5.97;73.09;99454.13;5051607;28;20199;-58
2022/03/05 05:30:52;;;;;;;49.97;35.88;;;;;;;5.90;72.58;99450.53;5052457;28;20442;-59
2022/03/05 05:33:20;;;;;;;46.17;32.53;;;;;;;5.90;72.25;99450.53;5052318;28;20206;-58
2022/03/05 05:35:47;;;;;;;43.37;31.43;;;;;;;5.79;72.62;99461.13;5051975;28;20724;-57
2022/03/05 05:38:14;;;;;;;40.57;30.10;;;;;;;5.54;73.64;99454.31;5052189;28;20193;-57
2022/03/05 05:40:41;;;;;;;42.43;30.40;;;;;;;5.52;74.88;99462.72;5052572;28;20544;-57
2022/03/05 05:43:08;;;;;;;35.83;28.60;;;;;;;5.48;75.49;99471.94;5052636;28;20221;-58
2022/03/05 05:45:36;;;;;;;34.13;27.27;;;;;;;5.45;75.87;99478.59;5052146;28;20197;-58
2022/03/05 05:48:03;;;;;;;36.93;27.67;;;;;;;5.51;76.03;99472.03;5052487;28;20300;-58
2022/03/05 05:50:30;;;;;;;36.93;28.30;;;;;;;5.63;76.26;99486.91;5051598;28;20201;-58
2022/03/05 05:52:57;;;;;;;39.40;29.50;;;;;;;5.52;76.24;99491.59;5051214;28;20213;-57
2022/03/05 05:55:24;;;;;;;37.37;28.37;;;;;;;5.53;75.91;99495.00;5049870;28;20282;-58
2022/03/05 05:57:51;;;;;;;44.60;35.67;;;;;;;5.43;76.70;99472.56;5051528;28;21119;-58
2022/03/05 06:00:18;;;;;;;41.37;29.77;;;;;;;5.66;75.68;99489.56;5052137;28;20195;-58
2022/03/05 06:02:47;;;;;;;38.33;28.33;;;;;;;5.60;75.60;99500.41;5052081;28;20204;-59
2022/03/05 06:05:14;;;;;;;35.73;28.07;;;;;;;5.50;76.33;99498.31;5051979;28;20284;-58
2022/03/05 06:07:41;;;;;;;38.30;28.20;;;;;;;5.54;76.27;99499.31;5052079;28;20197;-58
2022/03/05 06:10:09;;;;;;;44.60;29.63;;;;;;;5.50;77.44;99497.44;5052082;28;20225;-58
2022/03/05 06:12:36;;;;;;;40.97;30.63;;;;;;;5.52;76.89;99506.03;5052139;28;20694;-58
2022/03/05 06:15:04;;;;;;;51.33;32.97;;;;;;;5.44;77.53;99508.28;5051943;28;20202;-58
2022/03/05 06:17:31;;;;;;;43.90;32.70;;;;;;;5.52;77.71;99511.97;5051750;28;20309;-58
2022/03/05 06:19:59;;;;;;;53.00;34.87;;;;;;;5.43;78.64;99506.56;5051463;28;20188;-58
2022/03/05 06:22:26;;;;;;;56.30;41.47;;;;;;;5.54;79.07;99510.38;5052999;28;20958;-58
2022/03/05 06:24:53;;;;;;;51.97;36.47;;;;;;;5.55;79.40;99511.25;5063433;28;20209;-58
2022/03/05 06:27:20;;;;;;;44.47;33.53;;;;;;;5.58;79.17;99509.66;5071753;28;20523;-59
2022/03/05 06:29:47;;;;;;;42.40;32.63;;;;;;;5.65;78.62;99513.31;5071378;28;20228;-59
2022/03/05 06:32:14;;;;;;;43.20;31.63;;;;;;;5.82;77.87;99509.69;5051384;28;20297;-60
2022/03/05 06:34:41;;;;;;;45.57;33.87;;;;;;;5.98;77.29;99511.97;5055153;28;20668;-61
2022/03/05 06:37:09;;;;;;;46.33;37.10;;;;;;;6.11;75.84;99518.34;5070385;28;20522;-61
2022/03/05 06:39:36;;;;;;;48.30;34.53;;;;;;;6.23;76.36;99517.09;5059919;28;20284;-60
2022/03/05 06:42:03;;;;;;;45.70;34.03;;;;;;;6.24;75.15;99523.03;5051435;28;20232;-59
2022/03/05 06:44:31;;;;;;;39.47;30.97;;;;;;;6.29;76.02;99535.13;5051064;28;20209;-60
2022/03/05 06:46:58;;;;;;;39.80;30.93;;;;;;;6.31;75.59;99530.97;5050934;28;20191;-61
2022/03/05 06:49:25;;;;;;;39.13;29.73;;;;;;;6.26;76.29;99541.84;5050359;28;20202;-60
2022/03/05 06:51:52;;;;;;;36.80;28.53;;;;;;;6.22;76.16;99535.75;5050078;28;20200;-61
2022/03/05 06:54:21;;;;;;;41.30;30.20;;;;;;;6.33;76.82;99539.53;5049646;28;20296;-60
2022/03/05 06:56:47;;;;;;;35.57;28.17;;;;;;;6.32;76.69;99535.22;5049328;28;20741;-61
2022/03/05 06:59:14;;;;;;;36.77;27.03;;;;;;;6.46;75.64;99536.56;5050324;28;20655;-61
2022/03/05 07:01:41;;;;;;;35.85;30.67;;;;;;;6.53;76.44;99542.75;5049532;28;20542;-60
2022/03/05 07:04:08;;;;;;;37.50;29.57;;;;;;;6.59;75.20;99548.06;5049717;28;20558;-61
2022/03/05 07:06:37;;;;;;;34.80;27.23;;;;;;;6.69;74.94;99554.31;5050219;28;20181;-60
2022/03/05 07:09:04;;;;;;;38.45;31.38;;;;;;;6.51;75.07;99560.53;5049387;28;20509;-60
2022/03/05 07:11:33;;;;;;;35.93;28.27;;;;;;;6.53;75.25;99556.38;5050495;28;20892;-60
2022/03/05 07:14:00;;;;;;;41.37;29.10;;;;;;;6.58;76.00;99551.41;5050385;28;20680;-60
2022/03/05 07:16:27;;;;;;;34.90;27.83;;;;;;;6.14;77.43;99547.38;5050305;28;20237;-60
2022/03/05 07:18:54;;;;;;;34.83;28.67;;;;;;;6.17;79.50;99555.13;5050471;28;20202;-60
2022/03/05 07:21:21;;;;;;;38.50;29.50;;;;;;;6.32;78.92;99549.66;5050506;28;20284;-60
2022/03/05 07:23:48;;;;;;;37.90;30.00;;;;;;;6.45;79.37;99550.16;5050307;28;20198;-60
2022/03/05 07:26:16;;;;;;;38.60;28.00;;;;;;;6.44;78.28;99545.88;5050141;28;20653;-59
2022/03/05 07:28:45;;;;;;;44.53;32.60;;;;;;;6.26;79.61;99557.97;5050148;28;20235;-59
2022/03/05 07:31:12;;;;;;;46.37;32.47;;;;;;;6.16;79.90;99561.03;5050329;28;20650;-60
2022/03/05 07:33:39;;;;;;;52.05;38.95;;;;;;;6.25;79.72;99560.50;5049977;28;20435;-60
2022/03/05 07:36:06;;;;;;;42.87;33.17;;;;;;;6.40;79.36;99555.94;5050547;28;20280;-60
2022/03/05 07:38:34;;;;;;;44.73;33.73;;;;;;;6.41;78.05;99539.78;5049850;28;20218;-59
2022/03/05 07:41:01;;;;;;;46.90;35.43;;;;;;;6.50;79.51;99553.72;5050270;28;20199;-59
2022/03/05 07:43:28;;;;;;;41.50;32.50;;;;;;;6.63;79.05;99554.09;5049331;28;20289;-60
2022/03/05 07:45:57;;;;;;;42.83;32.63;;;;;;;6.76;78.46;99559.66;5047765;28;20273;-60
2022/03/05 07:48:25;;;;;;;41.70;32.47;;;;;;;6.84;77.93;99558.22;5046279;28;20707;-61
2022/03/05 07:50:52;;;;;;;47.45;36.65;;;;;;;6.93;77.83;99558.53;5049146;28;20438;-62
2022/03/05 07:53:19;;;;;;;54.00;38.53;;;;;;;7.04;78.06;99557.16;5049250;28;20188;-61
2022/03/05 07:55:47;;;;;;;51.00;36.07;;;;;;;7.04;76.78;99561.41;5051117;28;20288;-61
2022/03/05 07:58:14;;;;;;;43.73;34.00;;;;;;;6.81;77.19;99559.84;5049847;28;20210;-61
2022/03/05 08:00:40;;;;;;;45.37;33.43;;;;;;;6.77;78.50;99563.97;5049403;28;20282;-60
2022/03/05 08:03:09;;;;;;;45.20;34.53;;;;;;;6.79;78.35;99564.88;5049688;28;20281;-60
2022/03/05 08:05:36;;;;;;;47.53;35.20;;;;;;;6.85;79.19;99557.41;5049684;28;20231;-60
2022/03/05 08:08:03;;;;;;;52.20;37.13;;;;;;;6.89;79.99;99558.38;5049696;28;20204;-60
2022/03/05 08:10:30;;;;;;;48.23;36.30;;;;;;;6.98;80.78;99559.53;5050049;28;20194;-60
2022/03/05 08:12:57;;;;;;;46.87;31.87;;;;;;;6.80;80.07;99565.75;5048658;28;20293;-60
2022/03/05 08:15:24;;;;;;;45.67;39.28;;;;;;;6.64;79.64;99564.38;5048802;28;20436;-60
2022/03/05 08:17:53;;;;;;;42.77;34.30;;;;;;;6.75;80.13;99564.72;5047296;28;20213;-61
2022/03/05 08:20:22;;;;;;;42.30;33.83;;;;;;;6.64;79.97;99566.94;5049229;28;20203;-60
2022/03/05 08:22:49;;;;;;;48.03;37.58;;;;;;;6.76;79.25;99572.44;5048501;28;20984;-61
2022/03/05 08:25:16;;;;;;;45.20;35.13;;;;;;;6.79;79.09;99566.56;5041899;28;20203;-61
2022/03/05 08:27:43;;;;;;;45.90;35.37;;;;;;;6.59;80.62;99568.47;5048793;28;20598;-59
2022/03/05 08:30:10;;;;;;;46.67;36.10;;;;;;;6.74;80.54;99574.06;5048556;28;20226;-61
2022/03/05 08:32:38;;;;;;;47.80;36.13;;;;;;;6.87;79.27;99560.88;5048631;28;20269;-60
2022/03/05 08:35:07;;;;;;;51.80;37.57;;;;;;;6.97;80.01;99572.25;5048768;28;20205;-61
2022/03/05 08:37:36;;;;;;;49.70;35.27;;;;;;;7.02;80.27;99574.13;5048698;28;20766;-59
2022/03/05 08:40:05;;;;;;;51.13;38.63;;;;;;;7.13;81.57;99575.34;5046066;28;20196;-60
2022/03/05 08:42:32;;;;;;;50.67;37.17;;;;;;;7.21;82.52;99577.25;5047031;28;20307;-60
2022/03/05 08:44:58;;;;;;;54.13;37.93;;;;;;;7.22;81.74;99574.75;5048341;28;20319;-60
2022/03/05 08:47:25;;;;;;;56.40;45.00;;;;;;;7.29;82.49;99581.78;5049111;28;21336;-61
2022/03/05 08:49:52;;;;;;;47.77;37.37;;;;;;;7.41;83.15;99586.41;5061532;28;21075;-61
2022/03/05 08:52:19;;;;;;;47.30;37.53;;;;;;;7.44;82.32;99589.06;5047638;28;20244;-60
2022/03/05 08:54:47;;;;;;;48.50;37.00;;;;;;;7.49;82.15;99587.50;5049239;28;20189;-60
2022/03/05 08:57:14;;;;;;;49.33;37.17;;;;;;;7.49;82.16;99585.81;5049145;28;20593;-61
2022/03/05 08:59:42;;;;;;;48.10;37.97;;;;;;;7.41;81.64;99569.38;5047708;28;20196;-61
2022/03/05 09:02:09;;;;;;;57.47;41.53;;;;;;;7.57;81.79;99586.03;5048462;28;20210;-60
2022/03/05 09:04:36;;;;;;;54.07;41.10;;;;;;;7.41;82.19;99554.06;5048596;28;20289;-59
2022/03/05 09:07:03;;;;;;;56.63;42.37;;;;;;;7.65;81.84;99589.69;5048897;28;20201;-58
2022/03/05 09:09:30;;;;;;;57.93;42.47;;;;;;;7.61;81.84;99598.94;5048307;28;20188;-58
2022/03/05 09:11:58;;;;;;;58.83;44.40;;;;;;;7.57;81.85;99593.69;5050582;28;20545;-60
2022/03/05 09:14:25;;;;;;;64.87;45.10;;;;;;;7.59;82.65;99592.03;5050022;28;20198;-61
2022/03/05 09:16:52;;;;;;;62.10;45.17;;;;;;;7.58;81.51;99596.28;5048724;28;20212;-60
2022/03/05 09:19:19;;;;;;;57.20;44.03;;;;;;;7.57;82.71;99593.69;5047396;28;20288;-60
2022/03/05 09:21:46;;;;;;;66.40;44.60;;;;;;;7.58;82.41;99593.72;5051807;28;20674;-60
2022/03/05 09:24:13;;;;;;;64.20;45.37;;;;;;;7.75;82.58;99598.50;5043928;28;20209;-61
2022/03/05 09:26:40;;;;;;;63.00;47.33;;;;;;;7.83;82.01;99599.59;5050723;28;20196;-60
2022/03/05 09:29:08;;;;;;;66.33;48.67;;;;;;;7.89;81.88;99604.84;5043618;28;20306;-60
2022/03/05 09:31:35;;;;;;;67.90;49.27;;;;;;;7.94;82.54;99595.63;5051479;28;20185;-60
2022/03/05 09:34:02;;;;;;;69.63;47.60;;;;;;;7.91;82.05;99596.38;5047807;28;20298;-60
2022/03/05 09:36:30;;;;;;;66.70;52.30;;;;;;;7.99;80.82;99599.19;5047005;28;20443;-60
2022/03/05 09:38:56;;;;;;;60.20;46.47;;;;;;;8.08;80.34;99599.41;5044859;28;20284;-59
2022/03/05 09:41:24;;;;;;;57.47;41.63;;;;;;;7.81;78.70;99603.75;5049880;28;20192;-58
2022/03/05 09:43:50;;;;;;;51.87;40.53;;;;;;;7.86;79.29;99609.88;5050379;28;20203;-59
2022/03/05 09:46:22;;;;;;;65.20;45.30;;;;;;;7.97;80.54;99611.91;5051207;28;20558;-59
2022/03/05 09:48:53;;;;;;;51.23;39.67;;;;;;;8.13;81.44;99603.84;5047388;28;20209;-59
2022/03/05 09:51:23;;;;;;;51.37;38.03;;;;;;;8.20;80.03;99605.75;5049761;28;20273;-59
2022/03/05 09:53:53;;;;;;;52.10;39.57;;;;;;;8.28;80.54;99609.44;5050694;28;20703;-59
2022/03/05 09:56:21;;;;;;;50.77;38.50;;;;;;;8.36;79.35;99604.50;5043957;28;20195;-59
2022/03/05 09:58:48;;;;;;;51.47;39.30;;;;;;;8.52;79.15;99601.50;5048504;28;20970;-59
2022/03/05 10:01:15;;;;;;;52.55;45.80;;;;;;;8.59;78.36;99598.31;5049163;28;20454;-59
2022/03/05 10:03:48;;;;;;;51.83;40.53;;;;;;;8.71;76.29;99595.16;5050557;28;20681;-59
2022/03/05 10:06:17;;;;;;;51.07;40.13;;;;;;;8.80;76.65;99591.16;5050097;28;20265;-60
2022/03/05 10:08:44;;;;;;;48.53;38.40;;;;;;;9.02;77.89;99592.53;5048439;28;20196;-59
2022/03/05 10:11:12;;;;;;;49.43;38.87;;;;;;;9.09;77.51;99585.88;5050523;28;20214;-58
2022/03/05 10:13:40;;;;;;;58.67;44.57;;;;;;;9.25;77.64;99580.25;5044021;28;20199;-58
2022/03/05 10:16:08;;;;;;;50.87;35.90;;;;;;;9.07;74.43;99584.94;5051068;28;20574;-58
2022/03/05 10:18:36;;;;;;;37.73;30.97;;;;;;;8.98;74.47;99592.44;5051193;28;20220;-59
2022/03/05 10:21:07;;;;;;;42.70;32.60;;;;;;;9.19;74.63;99582.66;5049022;28;20204;-59
2022/03/05 10:23:36;;;;;;;35.13;30.90;;;;;;;9.28;72.63;99580.31;5050716;28;20439;-59
2022/03/05 10:26:05;;;;;;;39.80;29.10;;;;;;;9.54;71.76;99578.31;5051526;28;20258;-59
2022/03/05 10:28:32;;;;;;;37.53;30.60;;;;;;;9.63;71.56;99581.09;5050672;28;20199;-58
2022/03/05 10:31:02;;;;;;;39.73;30.90;;;;;;;9.56;71.03;99585.19;5050881;28;20564;-58
2022/03/05 10:33:32;;;;;;;38.73;31.57;;;;;;;9.65;72.37;99572.59;5051404;28;20196;-59
2022/03/05 10:36:00;;;;;;;40.17;33.33;;;;;;;9.81;72.80;99578.88;5050785;28;20196;-58
2022/03/05 10:38:48;;;;;;;42.70;33.70;;;;;;;9.88;71.81;99580.75;5048316;28;20793;-58
2022/03/05 10:41:17;;;;;;;46.93;39.67;;;;;;;9.80;72.12;99572.91;5049615;28;20913;-59
2022/03/05 10:43:45;;;;;;;40.87;35.47;;;;;;;9.99;71.74;99572.44;5050315;28;20292;-58
2022/03/05 10:46:12;;;;;;;40.03;32.80;;;;;;;10.08;71.14;99564.03;5050901;28;20274;-58
2022/03/05 10:48:41;;;;;;;43.65;38.03;;;;;;;10.13;70.15;99562.47;5049582;28;20514;-59
2022/03/05 10:51:11;;;;;;;42.63;32.77;;;;;;;10.26;69.81;99559.28;5050170;28;20200;-59
2022/03/05 10:53:44;;;;;;;46.30;33.43;;;;;;;10.38;70.18;99569.78;5050441;28;20623;-59
2022/03/05 10:56:31;;;;;;;43.73;33.93;;;;;;;10.45;69.62;99570.75;5050425;28;20200;-59
2022/03/05 10:59:10;;;;;;;39.80;32.00;;;;;;;10.37;67.81;99562.94;5050521;28;20216;-59
2022/03/05 11:01:38;;;;;;;36.97;30.17;;;;;;;10.32;67.49;99556.84;5050106;28;20202;-59
2022/03/05 11:04:06;;;;;;;34.27;29.60;;;;;;;10.35;67.29;99561.16;5050457;28;20192;-59
2022/03/05 11:06:37;;;;;;;42.43;32.57;;;;;;;10.32;67.75;99553.41;5050321;28;20208;-59
2022/03/05 11:09:07;;;;;;;38.30;31.10;;;;;;;10.19;67.71;99551.47;5050690;28;20191;-58
2022/03/05 11:11:37;;;;;;;40.50;32.10;;;;;;;10.14;68.98;99548.78;5050501;28;20290;-58
2022/03/05 11:14:05;;;;;;;33.60;28.35;;;;;;;10.15;65.72;99549.66;5043845;28;21383;-58
2022/03/05 11:16:33;;;;;;;34.90;27.93;;;;;;;10.29;65.14;99543.94;5048529;28;20204;-59
2022/03/05 11:19:00;;;;;;;40.57;30.60;;;;;;;10.35;65.19;99538.06;5043185;28;20307;-59
2022/03/05 11:21:28;;;;;;;47.33;37.47;;;;;;;10.52;68.07;99542.63;5048943;28;20196;-59
2022/03/05 11:23:56;;;;;;;35.17;29.37;;;;;;;10.73;65.99;99524.16;5049680;28;20195;-59
2022/03/05 11:26:25;;;;;;;36.43;30.53;;;;;;;10.76;66.26;99502.78;5045141;28;20200;-58
2022/03/05 11:28:52;;;;;;;32.73;28.20;;;;;;;10.96;64.11;99520.22;5048398;28;20602;-59